Wednesday, May 25, 2016
07:17 UTC
  |  Log In   |  Register Free
Airport Search:

De Kalb County Airport
(KGWB)

De Kalb County Airport Diagram
No Airport Diagram Available

FAA data valid effective Mar 31 2016 - May 26 2016 (unless otherwise noted).

 
 
 
 
 
 
 
 
 
 
 
 
 
 
Current Aviation Weather for KGWB

Weather Summary


The most recent METAR observation for GWB was updated at: 12:55 UTC
METAR for KGWB is not available. Closest METAR is for KFWA
KGWB  (most recent observation was updatred at 25:06 UTC)
250655Z AUTO 00000KT 10SM CLR 16/11 A3005 RMK AO2

KFWA  (20.6 nm NE)   (most recent observation was updated at 25:06 UTC)
250654Z 00000KT 10SM BKN260 17/11 A3005 RMK AO2 SLP172 T01720106

KDFI  (28.7 nm SW)   (most recent observation was updated at 25:06 UTC)
250653Z AUTO 00000KT 10SM CLR 16/08 A3005 RMK AO2 SLP171 T01560083

TAF for KGWB is not available.
KFWA  (20.6 nm NE)   (most recent observation was updatred at 25:05 UTC)
250540Z 2506/2606 20005KT P6SM FEW250 FM260200 18007KT P6SM SCT250


GlobalAir.com is loading additional information.
 Current Weather at GWB
63.0 F° (17.0 C°)

Southwest winds at 3.5 mph
Pressure:
30.05 in
Humidity:
64%
Wind:
Southwest at 3.5 mph
Dew Point:
50.0 F° (10.0 C°)
Visibility:
10.00 mi
GWB NOAA Radar




Find All Airport Services Find A Hotel Find A Rental Car Find A Golf Course Find A Restaurant $100 Hamburger



Airport Weather Forecast for KGWB

Translated METAR for KGWB (0655 UTC)
METAR:
KGWB 250655Z AUTO 00000KT 10SM CLR 16/11 A3005 RMK AO2
Conditions at:
KGWB (De Kalb County, IN) observed 0655 UTC 25 May 2016
Temperature:
16°C (60.8°F)
Dewpoint:
11°C (51.8°F) [RH = 72.2]
Pressure:
30.05 inches Hg (1017.6 mb)
Winds:
from the N (000 degrees) at 0 mph (0 knots: 0 m/s)
Visibility:
10 mile(s)
Ceiling:
at least 12,000 feet AGL
Clouds:
Clear below 12,000 feet AGL
Remarks:
site is un-manned
site is automated and HAS a precipitation sensor

Translated TAF for KFWA (Fort Wayne Intl, IN) (0540 UTC)
TAF text:
KFWA 250540Z 2506/2606 20005KT P6SM FEW250
Forecast period:
Wednesday May 25 2016 06:00 UTC - Thursday May 26 2016 06:00 UTC
Forecast type:
FROM: standard forecast or significant change
Winds:
from the SSW (200 degrees) at 5.8 mph (5 knots: 2.6 m/s)
Visibility:
6 or more mile(s) (9.7+ km)
Ceiling:
at least 12,000 feet AGL
Clouds:
Few Clouds at 25,000 feet AGL
Weather:
no significant weather observed at this time
TAF text:
FM260200 18007KT P6SM SCT250
Forecast period:
Thursday May 26 2016 02:00 UTC - Thursday May 26 2016 06:00 UTC
Forecast type:
FROM: standard forecast or significant change
Winds:
from the S (180 degrees) at 8.1 mph (7 knots: 3.6 m/s)
Visibility:
6 or more mile(s) (9.7+ km)
Ceiling:
at least 12,000 feet AGL
Clouds:
Scattered Clouds at 25,000 feet AGL
Weather:
no significant weather observed at this time
FBO's on the Field
FBO Company Facility Photos Services Transportation Aviation Fuel Prices: Prices include tax
Catering Weather Repair Courtesy Rental Type 100LL JetA JetA+ MOGAS 8087
 
Century Aviation

This FBO has not yet been rated
FS:Shell
Last Updated: May-01
Login to update fuel prices
SS:
Contact Century AviationMore FBO Information
 
Add another FBO Facility Photos Catering Weather Repair Courtesy Rental Type 100LL JetA JetA+ MOGAS 8087
Services Transportation Aviation Fuel Prices: Prices include tax


model-print
model-print
model-print
model-print